Time;durP1;ratioP1;P1;durP2;ratioP2;P2;SDS_P1;SDS_P2;PMS_P1;PMS_P2;Temp;Humidity;BMP_temperature;BMP_pressure;BME280_temperature;BME280_humidity;BME280_pressure;Samples;Min_cycle;Max_cycle;Signal;HPM_P1;HPM_P2
2023/10/31 00:02:17;;;;;;;0.20;0.03;;;;;;;10.68;79.62;98850.72;4905365;28;20076;-82
2023/10/31 00:04:44;;;;;;;0.25;0.10;;;;;;;10.64;79.41;98836.03;4898213;28;20056;-82
2023/10/31 00:07:11;;;;;;;0.28;0.28;;;;;;;10.71;78.17;98853.22;4891726;28;20063;-82
2023/10/31 00:09:39;;;;;;;0.10;0.10;;;;;;;10.80;77.25;98862.50;4906036;28;20048;-82
2023/10/31 00:12:06;;;;;;;0.10;0.10;;;;;;;10.79;76.94;98861.66;4910336;28;20431;-82
2023/10/31 00:14:33;;;;;;;0.00;0.00;;;;;;;10.77;77.39;98865.25;4908402;28;20058;-82
2023/10/31 00:17:00;;;;;;;0.10;0.03;;;;;;;10.72;78.21;98865.44;4903762;28;20155;-81
2023/10/31 00:19:27;;;;;;;0.20;0.08;;;;;;;10.74;77.52;98865.38;4899835;28;20059;-83
2023/10/31 00:21:53;;;;;;;0.10;0.10;;;;;;;10.78;76.75;98880.09;4905021;28;20078;-81
2023/10/31 00:24:20;;;;;;;0.20;0.20;;;;;;;10.74;77.41;98868.00;4898343;28;20127;-83
2023/10/31 00:26:47;;;;;;;0.10;0.05;;;;;;;10.73;77.48;98869.78;4900258;28;20063;-82
2023/10/31 00:29:14;;;;;;;0.30;0.10;;;;;;;10.68;77.76;98871.72;4894602;28;20381;-82
2023/10/31 00:31:41;;;;;;;0.32;0.20;;;;;;;10.73;76.96;98867.16;4905515;28;20052;-82
2023/10/31 00:34:08;;;;;;;0.65;0.10;;;;;;;10.65;77.53;98869.22;4895556;28;20084;-82
2023/10/31 00:36:35;;;;;;;0.08;0.08;;;;;;;10.67;76.50;98877.88;4913603;28;20067;-83
2023/10/31 00:39:02;;;;;;;0.65;0.20;;;;;;;10.62;77.19;98869.34;4903994;28;20055;-81
2023/10/31 00:41:30;;;;;;;0.10;0.10;;;;;;;10.62;76.87;98861.50;4909619;28;20059;-83
2023/10/31 00:43:56;;;;;;;1.50;0.20;;;;;;;10.55;77.02;98860.03;4900022;28;20063;-82
2023/10/31 00:46:23;;;;;;;0.20;0.15;;;;;;;10.56;76.46;98848.63;4892637;28;20057;-82
2023/10/31 00:48:50;;;;;;;0.13;0.10;;;;;;;10.51;77.01;98864.53;4902822;28;20148;-81
2023/10/31 00:51:17;;;;;;;1.00;0.20;;;;;;;10.42;77.55;98883.25;4892098;28;20044;-83
2023/10/31 00:53:43;;;;;;;0.22;0.10;;;;;;;10.41;77.39;98887.66;4904776;28;20048;-81
2023/10/31 00:56:10;;;;;;;0.00;0.00;;;;;;;10.33;78.37;98876.56;4895058;28;20063;-81
2023/10/31 00:58:37;;;;;;;0.20;0.13;;;;;;;10.47;76.86;98875.19;4884477;28;20052;-82
2023/10/31 01:01:04;;;;;;;1.77;0.10;;;;;;;10.34;78.14;98870.47;4903469;28;20172;-83
2023/10/31 01:03:31;;;;;;;1.13;0.10;;;;;;;10.24;78.87;98880.41;4893469;28;20044;-82
2023/10/31 01:05:58;;;;;;;0.10;0.10;;;;;;;10.20;79.07;98885.84;4903627;28;20131;-82
2023/10/31 01:08:24;;;;;;;0.30;0.10;;;;;;;10.22;78.86;98897.09;4894389;28;20056;-83
2023/10/31 01:10:51;;;;;;;0.00;0.00;;;;;;;10.31;77.47;98894.16;4902487;28;20059;-83
2023/10/31 01:13:18;;;;;;;0.10;0.10;;;;;;;10.22;78.04;98889.25;4897367;28;20052;-82
2023/10/31 01:15:45;;;;;;;0.65;0.10;;;;;;;10.29;77.22;98897.72;4892672;28;20060;-82
2023/10/31 01:18:12;;;;;;;0.70;0.20;;;;;;;10.14;78.18;98894.78;4890119;28;20139;-82
2023/10/31 01:20:39;;;;;;;0.60;0.10;;;;;;;10.08;78.05;98906.34;4891991;28;20053;-82
2023/10/31 01:23:06;;;;;;;0.52;0.10;;;;;;;10.00;78.61;98913.63;4898614;28;20059;-82
2023/10/31 01:25:32;;;;;;;0.40;0.10;;;;;;;10.01;77.80;98915.34;4916121;28;20051;-83
2023/10/31 01:27:59;;;;;;;0.15;0.10;;;;;;;10.00;77.96;98924.13;4901622;28;20053;-82
2023/10/31 01:30:26;;;;;;;0.10;0.10;;;;;;;9.93;78.46;98922.63;4909586;28;20071;-82
2023/10/31 01:32:53;;;;;;;0.40;0.15;;;;;;;9.88;78.60;98914.09;4902439;28;20075;-82
2023/10/31 01:35:20;;;;;;;0.05;0.05;;;;;;;9.86;79.42;98915.91;4896507;28;20146;-83
2023/10/31 01:37:47;;;;;;;1.17;0.10;;;;;;;9.82;79.89;98916.91;4905298;28;20061;-82
2023/10/31 01:40:14;;;;;;;0.10;0.10;;;;;;;9.85;79.06;98925.53;4891222;28;20052;-83
2023/10/31 01:42:41;;;;;;;0.20;0.10;;;;;;;9.86;78.96;98927.25;4904995;28;20074;-82
2023/10/31 01:45:08;;;;;;;0.30;0.17;;;;;;;9.88;79.27;98925.44;4900288;28;20062;-82
2023/10/31 01:47:35;;;;;;;0.43;0.20;;;;;;;9.89;79.05;98921.03;4897390;28;20156;-83
2023/10/31 01:50:02;;;;;;;0.60;0.10;;;;;;;9.85;79.77;98919.47;4911580;28;20089;-83
2023/10/31 01:52:32;;;;;;;0.10;0.10;;;;;;;9.79;80.09;98915.28;4915559;28;20056;-83
2023/10/31 01:55:01;;;;;;;0.40;0.10;;;;;;;9.72;80.33;98919.03;4891722;28;20640;-82
2023/10/31 01:57:27;;;;;;;1.52;0.10;;;;;;;9.66;80.73;98920.13;4891624;28;20058;-82
2023/10/31 01:59:54;;;;;;;0.95;0.15;;;;;;;9.74;80.24;98918.06;4903378;28;20048;-82
2023/10/31 02:02:23;;;;;;;0.10;0.10;;;;;;;9.70;80.40;98926.97;4896702;28;20055;-82
2023/10/31 02:04:50;;;;;;;0.22;0.10;;;;;;;9.73;80.18;98932.09;4909891;28;20055;-82
2023/10/31 02:07:17;;;;;;;3.08;0.20;;;;;;;9.71;80.61;98925.19;4894087;28;20071;-83
2023/10/31 02:09:44;;;;;;;0.75;0.10;;;;;;;9.68;81.19;98926.13;4902358;28;20051;-82
2023/10/31 02:12:11;;;;;;;0.10;0.10;;;;;;;9.74;80.63;98925.06;4897082;28;20044;-83
2023/10/31 02:14:38;;;;;;;0.20;0.10;;;;;;;9.71;80.86;98922.56;4900450;28;20047;-82
2023/10/31 02:17:04;;;;;;;0.00;0.00;;;;;;;9.65;80.78;98921.00;4903197;28;20274;-82
2023/10/31 02:19:31;;;;;;;1.80;0.20;;;;;;;9.63;81.05;98927.22;4894118;28;20152;-83
2023/10/31 02:21:59;;;;;;;1.48;0.10;;;;;;;9.65;80.79;98934.09;4906196;28;20058;-82
2023/10/31 02:24:26;;;;;;;0.00;0.00;;;;;;;9.61;80.90;98940.38;4901100;28;20048;-83
2023/10/31 02:26:53;;;;;;;0.80;0.10;;;;;;;9.57;81.04;98946.59;4901638;28;20056;-82
2023/10/31 02:29:19;;;;;;;0.20;0.20;;;;;;;9.55;81.27;98938.81;4892768;28;20103;-83
2023/10/31 02:31:46;;;;;;;0.10;0.10;;;;;;;9.60;80.82;98945.66;4899476;28;20056;-81
2023/10/31 02:34:14;;;;;;;0.43;0.10;;;;;;;9.67;80.40;98937.50;4899181;28;20091;-84
2023/10/31 02:36:40;;;;;;;0.25;0.10;;;;;;;9.72;80.21;98945.25;4898144;28;20055;-83
2023/10/31 02:39:07;;;;;;;0.43;0.20;;;;;;;9.66;80.46;98954.16;4901913;28;20048;-82
2023/10/31 02:41:34;;;;;;;0.95;0.10;;;;;;;9.52;81.77;98948.56;4899921;28;20142;-81
2023/10/31 02:44:01;;;;;;;0.20;0.20;;;;;;;9.53;81.23;98938.03;4905855;28;20056;-83
2023/10/31 02:46:28;;;;;;;0.20;0.10;;;;;;;9.63;80.52;98946.41;4888432;28;20062;-83
2023/10/31 02:48:55;;;;;;;0.70;0.20;;;;;;;9.81;79.16;98954.53;4903474;28;20094;-82
2023/10/31 02:51:21;;;;;;;0.38;0.20;;;;;;;9.78;79.59;98960.72;4896193;28;20048;-82
2023/10/31 02:53:48;;;;;;;0.73;0.28;;;;;;;9.79;79.63;98969.44;4906234;28;20083;-82
2023/10/31 02:56:16;;;;;;;0.17;0.10;;;;;;;9.88;78.54;98961.28;4900052;28;20040;-82
2023/10/31 02:58:43;;;;;;;0.35;0.25;;;;;;;9.83;79.22;98963.19;4893680;28;20052;-83
2023/10/31 03:01:09;;;;;;;0.10;0.10;;;;;;;9.83;79.03;98969.25;4894231;28;20063;-82
2023/10/31 03:03:36;;;;;;;0.30;0.20;;;;;;;9.95;77.94;98961.88;4919329;28;20055;-82
2023/10/31 03:06:05;;;;;;;0.47;0.20;;;;;;;9.90;78.43;98960.28;4903806;28;20048;-82
2023/10/31 03:08:32;;;;;;;0.20;0.20;;;;;;;9.86;78.66;98963.06;4890174;28;20055;-82
2023/10/31 03:10:58;;;;;;;0.28;0.20;;;;;;;9.90;78.38;98975.16;4904446;28;20052;-83
2023/10/31 03:13:25;;;;;;;0.52;0.10;;;;;;;9.88;78.31;98979.59;4904407;28;20123;-82
2023/10/31 03:15:52;;;;;;;1.77;0.20;;;;;;;9.93;77.84;98985.53;4883254;28;20063;-82
2023/10/31 03:18:19;;;;;;;2.53;0.20;;;;;;;9.86;78.22;98997.13;4895331;28;20051;-82
2023/10/31 03:20:46;;;;;;;0.35;0.20;;;;;;;9.90;77.99;99001.34;4902070;28;20060;-82
2023/10/31 03:23:13;;;;;;;1.45;0.30;;;;;;;10.02;77.24;99002.69;4894478;28;20059;-82
2023/10/31 03:25:40;;;;;;;0.38;0.30;;;;;;;10.00;76.95;99010.59;4893209;28;20077;-83
2023/10/31 03:28:23;;;;;;;0.47;0.20;;;;;;;9.98;77.58;99015.06;4887990;28;20570;-82
2023/10/31 03:30:50;;;;;;;0.85;0.30;;;;;;;9.99;77.70;99026.38;4890437;28;20063;-82
2023/10/31 03:33:17;;;;;;;0.32;0.20;;;;;;;9.94;78.03;99023.94;4902230;28;20056;-83
2023/10/31 03:35:45;;;;;;;0.80;0.30;;;;;;;9.93;77.88;99030.06;4914448;28;20054;-82
2023/10/31 03:38:12;;;;;;;0.10;0.10;;;;;;;9.92;78.07;99036.22;4911558;28;20135;-81
2023/10/31 03:40:39;;;;;;;0.40;0.20;;;;;;;9.96;77.63;99039.59;4904142;28;20052;-82
2023/10/31 03:43:05;;;;;;;0.20;0.20;;;;;;;9.98;77.31;99038.66;4903074;28;20056;-85
2023/10/31 03:45:32;;;;;;;0.50;0.30;;;;;;;10.02;76.96;99040.25;4887312;28;20071;-85
2023/10/31 03:47:59;;;;;;;1.27;0.20;;;;;;;10.03;76.95;99046.34;4903969;28;20127;-84
2023/10/31 03:50:26;;;;;;;4.65;0.30;;;;;;;9.97;77.36;99047.41;4900496;28;20090;-86
2023/10/31 03:52:53;;;;;;;1.35;0.20;;;;;;;9.94;77.95;99044.06;4884688;28;20048;-83
2023/10/31 03:55:20;;;;;;;0.28;0.20;;;;;;;10.01;77.22;99043.78;4900223;28;20176;-85
2023/10/31 03:57:47;;;;;;;1.95;0.93;;;;;;;9.95;77.97;99041.38;4906431;28;20048;-83
2023/10/31 04:00:15;;;;;;;0.47;0.10;;;;;;;9.91;78.31;99039.75;4893518;28;20524;-84
2023/10/31 04:02:41;;;;;;;0.15;0.10;;;;;;;9.84;79.11;99040.88;4897477;28;20587;-82
2023/10/31 04:05:08;;;;;;;0.20;0.10;;;;;;;9.85;78.79;99045.22;4911853;28;20056;-83
2023/10/31 04:07:35;;;;;;;0.30;0.10;;;;;;;9.79;79.73;99051.53;4895094;28;20052;-84
2023/10/31 04:10:02;;;;;;;2.67;0.17;;;;;;;9.77;79.44;99042.00;4895185;28;20048;-84
2023/10/31 04:12:29;;;;;;;0.20;0.20;;;;;;;9.77;79.45;99042.84;4902295;28;20052;-84
2023/10/31 04:14:56;;;;;;;0.17;0.17;;;;;;;9.79;79.14;99048.03;4917986;28;20055;-84
2023/10/31 04:17:23;;;;;;;0.85;0.20;;;;;;;9.75;79.51;99045.53;4911987;28;20415;-83
2023/10/31 04:19:50;;;;;;;1.35;0.17;;;;;;;9.70;79.90;99052.69;4912708;28;20138;-83
2023/10/31 04:22:17;;;;;;;0.45;0.20;;;;;;;9.69;80.05;99057.97;4897079;28;20179;-85
2023/10/31 04:24:44;;;;;;;1.10;0.17;;;;;;;9.69;79.95;99057.97;4908663;28;20063;-83
2023/10/31 04:27:11;;;;;;;0.40;0.20;;;;;;;9.67;80.01;99063.25;4897336;28;20048;-83
2023/10/31 04:29:38;;;;;;;0.22;0.13;;;;;;;9.69;79.54;99058.84;4893394;28;20052;-84
2023/10/31 04:32:05;;;;;;;0.65;0.10;;;;;;;9.77;78.59;99063.81;4907255;28;20058;-83
2023/10/31 04:34:32;;;;;;;0.43;0.35;;;;;;;9.72;78.70;99060.50;4902099;28;20052;-83
2023/10/31 04:36:59;;;;;;;0.30;0.10;;;;;;;9.69;78.97;99061.44;4896513;28;20049;-83
2023/10/31 04:39:25;;;;;;;0.10;0.10;;;;;;;9.86;77.19;99052.16;4891766;28;20052;-85
2023/10/31 04:41:52;;;;;;;0.30;0.10;;;;;;;9.82;77.61;99061.91;4890853;28;20063;-85
2023/10/31 04:44:19;;;;;;;0.28;0.10;;;;;;;9.74;78.37;99064.75;4897983;28;20056;-83
2023/10/31 04:46:47;;;;;;;0.45;0.20;;;;;;;9.63;79.35;99072.13;4919047;28;20094;-83
2023/10/31 04:49:15;;;;;;;1.30;0.20;;;;;;;9.57;79.91;99064.47;4901147;28;20054;-83
2023/10/31 04:51:42;;;;;;;0.17;0.17;;;;;;;9.54;80.59;99067.19;4898646;28;20048;-83
2023/10/31 04:54:09;;;;;;;0.77;0.22;;;;;;;9.49;80.86;99069.13;4902786;28;20080;-83
2023/10/31 04:56:36;;;;;;;1.55;0.28;;;;;;;9.49;80.47;99058.66;4902402;28;20040;-84
2023/10/31 04:59:03;;;;;;;0.82;0.20;;;;;;;9.53;80.33;99063.72;4897547;28;20060;-83
2023/10/31 05:01:30;;;;;;;0.30;0.20;;;;;;;9.64;78.64;99067.75;4879624;28;20055;-85
2023/10/31 05:03:56;;;;;;;1.27;0.40;;;;;;;9.67;77.89;99063.25;4909454;28;20063;-85
2023/10/31 05:06:36;;;;;;;0.20;0.10;;;;;;;9.82;76.47;99072.38;4897846;28;20048;-85
2023/10/31 05:09:03;;;;;;;0.85;0.13;;;;;;;9.77;76.63;99069.03;4900812;28;20066;-82
2023/10/31 05:11:30;;;;;;;0.17;0.17;;;;;;;9.77;76.78;99074.28;4887160;28;20142;-83
2023/10/31 05:13:57;;;;;;;0.22;0.10;;;;;;;9.70;77.54;99073.66;4889441;28;20052;-84
2023/10/31 05:16:24;;;;;;;2.65;0.20;;;;;;;9.73;77.19;99073.53;4896430;28;20053;-83
2023/10/31 05:18:51;;;;;;;0.38;0.10;;;;;;;9.72;77.19;99076.22;4904474;28;20056;-83
2023/10/31 05:21:21;;;;;;;0.20;0.20;;;;;;;9.66;78.11;99076.41;4887886;28;20079;-82
2023/10/31 05:23:48;;;;;;;0.28;0.10;;;;;;;9.66;78.16;99081.63;4906255;28;20161;-82
2023/10/31 05:26:15;;;;;;;0.13;0.13;;;;;;;9.67;77.90;99080.75;4885501;28;20044;-83
2023/10/31 05:28:42;;;;;;;0.25;0.20;;;;;;;9.64;78.67;99089.56;4899354;28;20048;-82
2023/10/31 05:31:09;;;;;;;0.10;0.10;;;;;;;9.55;79.40;99090.72;4901631;28;20292;-84
2023/10/31 05:33:37;;;;;;;1.25;0.73;;;;;;;9.52;79.86;99089.97;4896493;28;20052;-82
2023/10/31 05:36:04;;;;;;;1.00;0.20;;;;;;;9.46;79.92;99085.78;4896765;28;20147;-83
2023/10/31 05:38:31;;;;;;;0.43;0.20;;;;;;;9.40;80.88;99091.22;4890836;28;20053;-83
2023/10/31 05:40:58;;;;;;;1.13;0.17;;;;;;;9.38;81.18;99091.28;4903094;28;20048;-82
2023/10/31 05:43:25;;;;;;;0.20;0.20;;;;;;;9.42;80.80;99101.63;4885826;28;20056;-83
2023/10/31 05:45:52;;;;;;;1.33;0.20;;;;;;;9.37;81.28;99110.50;4920152;28;20052;-81
2023/10/31 05:48:18;;;;;;;0.55;0.15;;;;;;;9.30;81.74;99116.81;4888508;28;20131;-82
2023/10/31 05:50:45;;;;;;;0.17;0.17;;;;;;;9.25;82.88;99126.56;4901833;28;20127;-82
2023/10/31 05:53:12;;;;;;;0.20;0.10;;;;;;;9.18;83.63;99127.66;4892737;28;20102;-82
2023/10/31 05:55:39;;;;;;;0.80;0.10;;;;;;;9.13;84.38;99130.41;4899739;28;20076;-84
2023/10/31 05:58:06;;;;;;;0.10;0.10;;;;;;;9.05;85.57;99141.13;4905174;28;20080;-82
2023/10/31 06:00:34;;;;;;;1.17;0.20;;;;;;;9.03;85.43;99140.28;4891345;28;20056;-82
2023/10/31 06:03:02;;;;;;;0.52;0.20;;;;;;;8.98;86.11;99150.06;4902434;28;20115;-83
2023/10/31 06:05:29;;;;;;;1.15;0.40;;;;;;;8.92;86.36;99151.97;4895701;28;20074;-83
2023/10/31 06:07:56;;;;;;;0.73;0.10;;;;;;;8.93;86.86;99165.03;4895010;28;20063;-82
2023/10/31 06:10:23;;;;;;;1.75;0.40;;;;;;;8.89;86.81;99152.91;4908733;28;20052;-82
2023/10/31 06:12:49;;;;;;;1.55;0.40;;;;;;;8.92;86.54;99168.56;4905831;28;20062;-82
2023/10/31 06:15:18;;;;;;;0.70;0.20;;;;;;;8.96;86.20;99175.38;4909530;28;20071;-83
2023/10/31 06:17:45;;;;;;;0.63;0.28;;;;;;;8.98;85.81;99168.38;4893851;28;20052;-82
2023/10/31 06:20:12;;;;;;;1.52;0.30;;;;;;;9.00;85.11;99161.31;4910678;28;20178;-83
2023/10/31 06:22:39;;;;;;;0.43;0.32;;;;;;;9.14;83.66;99178.38;4896296;28;20048;-83
2023/10/31 06:25:06;;;;;;;1.20;0.20;;;;;;;9.09;84.39;99175.06;4893763;28;20071;-85
2023/10/31 06:27:32;;;;;;;0.10;0.10;;;;;;;9.02;85.33;99183.09;4896723;28;20052;-82
2023/10/31 06:30:00;;;;;;;0.43;0.30;;;;;;;9.01;86.16;99193.59;4901717;28;20058;-83
2023/10/31 06:32:46;;;;;;;0.68;0.30;;;;;;;8.98;86.39;99183.19;4900735;28;20052;-83
2023/10/31 06:35:13;;;;;;;1.30;0.30;;;;;;;8.96;86.73;99179.78;4897907;28;20052;-82
2023/10/31 06:37:40;;;;;;;0.45;0.35;;;;;;;8.96;87.04;99188.47;4900123;28;20106;-83
2023/10/31 06:40:07;;;;;;;1.30;0.30;;;;;;;8.96;86.97;99196.31;4896861;28;20052;-84
2023/10/31 06:42:35;;;;;;;0.93;0.20;;;;;;;8.99;86.35;99192.78;4895802;28;20147;-82
2023/10/31 06:45:03;;;;;;;1.30;0.40;;;;;;;9.01;86.41;99207.53;4901289;28;20060;-84
2023/10/31 06:47:30;;;;;;;1.23;0.28;;;;;;;9.00;86.90;99197.97;4914595;28;21171;-82
2023/10/31 06:49:57;;;;;;;0.47;0.20;;;;;;;8.97;87.02;99203.28;4894897;28;20060;-83
2023/10/31 06:52:24;;;;;;;0.40;0.30;;;;;;;8.97;86.60;99191.97;4887624;28;20055;-83
2023/10/31 06:54:50;;;;;;;0.70;0.20;;;;;;;8.98;86.53;99194.53;4892343;28;20055;-83
2023/10/31 06:57:17;;;;;;;0.52;0.20;;;;;;;9.01;85.94;99204.06;4877604;28;20044;-82
2023/10/31 06:59:44;;;;;;;1.25;0.40;;;;;;;9.04;85.96;99204.81;4901274;28;20048;-82
2023/10/31 07:02:11;;;;;;;1.38;0.20;;;;;;;9.08;85.71;99196.88;4881697;28;20107;-82
2023/10/31 07:04:37;;;;;;;0.60;0.30;;;;;;;9.13;84.60;99201.09;4904942;28;20053;-82
2023/10/31 07:07:04;;;;;;;0.85;0.40;;;;;;;9.18;84.25;99206.19;4898521;28;20056;-83
2023/10/31 07:09:31;;;;;;;1.55;0.30;;;;;;;9.17;84.78;99204.50;4894747;28;20075;-83
2023/10/31 07:11:58;;;;;;;0.40;0.30;;;;;;;9.17;83.93;99207.09;4899281;28;20059;-83
2023/10/31 07:14:25;;;;;;;0.40;0.30;;;;;;;9.23;83.26;99199.91;4896881;28;20055;-83
2023/10/31 07:16:51;;;;;;;9.10;0.55;;;;;;;9.27;83.29;99208.53;4898883;28;20074;-82
2023/10/31 07:19:18;;;;;;;0.40;0.30;;;;;;;9.30;82.73;99211.06;4892114;28;20144;-82
2023/10/31 07:21:45;;;;;;;1.02;0.40;;;;;;;9.34;82.89;99217.06;4916157;28;20044;-83
2023/10/31 07:24:12;;;;;;;0.52;0.30;;;;;;;9.45;81.44;99216.75;4901105;28;20063;-82
2023/10/31 07:26:39;;;;;;;0.85;0.30;;;;;;;9.50;80.90;99227.94;4903488;29;20056;-84
2023/10/31 07:29:06;;;;;;;0.30;0.22;;;;;;;9.56;80.05;99225.16;4900753;28;20044;-83
2023/10/31 07:31:33;;;;;;;0.20;0.20;;;;;;;9.63;78.65;99229.31;4885780;28;20072;-82
2023/10/31 07:34:00;;;;;;;1.40;0.40;;;;;;;9.69;77.88;99231.72;4892296;28;20431;-82
2023/10/31 07:36:26;;;;;;;0.45;0.20;;;;;;;9.70;77.56;99229.94;4899928;28;20072;-82
2023/10/31 07:38:53;;;;;;;0.38;0.20;;;;;;;9.78;77.17;99246.31;4898052;28;20056;-82
2023/10/31 07:41:20;;;;;;;0.28;0.17;;;;;;;9.78;77.07;99243.69;4895327;28;20427;-83
2023/10/31 07:43:47;;;;;;;0.30;0.15;;;;;;;9.81;76.65;99242.75;4903257;28;20063;-82
2023/10/31 07:46:14;;;;;;;0.30;0.10;;;;;;;9.78;77.42;99240.22;4890714;28;20143;-82
2023/10/31 07:48:40;;;;;;;0.20;0.17;;;;;;;9.83;76.90;99251.41;4906589;28;20116;-82
2023/10/31 07:51:07;;;;;;;1.38;0.20;;;;;;;9.88;76.43;99263.44;4900549;28;20135;-83
2023/10/31 07:53:34;;;;;;;2.90;0.25;;;;;;;9.91;76.44;99255.50;4895153;28;20051;-82
2023/10/31 07:56:01;;;;;;;0.10;0.08;;;;;;;9.92;76.60;99261.56;4902448;28;20055;-82
2023/10/31 07:58:28;;;;;;;1.05;0.50;;;;;;;9.92;76.67;99257.22;4881076;28;20056;-83
2023/10/31 08:00:54;;;;;;;0.73;0.20;;;;;;;9.97;75.58;99253.59;4886703;28;20060;-82
2023/10/31 08:03:21;;;;;;;0.65;0.20;;;;;;;9.99;75.89;99262.25;4891580;28;20060;-82
2023/10/31 08:05:49;;;;;;;2.20;0.17;;;;;;;9.97;76.19;99262.31;4898762;28;20052;-83
2023/10/31 08:08:15;;;;;;;1.02;0.20;;;;;;;9.96;76.37;99271.06;4899999;28;20066;-82
2023/10/31 08:10:42;;;;;;;0.45;0.25;;;;;;;10.01;76.07;99265.72;4896780;29;20063;-83
2023/10/31 08:13:09;;;;;;;0.65;0.35;;;;;;;10.04;75.59;99266.44;4913747;28;20059;-83
2023/10/31 08:15:36;;;;;;;0.60;0.28;;;;;;;10.07;75.81;99274.22;4874678;29;20075;-82
2023/10/31 08:18:03;;;;;;;0.70;0.28;;;;;;;10.10;76.13;99276.72;4913768;28;20047;-82
2023/10/31 08:20:33;;;;;;;0.20;0.20;;;;;;;10.17;75.95;99277.41;4892939;28;20056;-82
2023/10/31 08:23:00;;;;;;;0.57;0.20;;;;;;;10.20;75.86;99286.94;4899814;28;20141;-82
2023/10/31 08:25:27;;;;;;;1.45;0.15;;;;;;;10.25;75.99;99296.38;4899254;28;20072;-83
2023/10/31 08:27:54;;;;;;;0.50;0.20;;;;;;;10.26;76.04;99292.84;4913103;28;20067;-83
2023/10/31 08:30:21;;;;;;;1.17;0.30;;;;;;;10.31;75.03;99295.34;4886640;28;20469;-84
2023/10/31 08:32:48;;;;;;;1.35;0.30;;;;;;;10.31;74.96;99295.34;4893158;28;20064;-82
2023/10/31 08:35:15;;;;;;;0.95;0.20;;;;;;;10.32;75.04;99307.50;4900029;28;20048;-83
2023/10/31 08:37:41;;;;;;;1.55;0.30;;;;;;;10.35;74.86;99310.06;4892141;28;20052;-83
2023/10/31 08:40:09;;;;;;;1.20;0.13;;;;;;;10.43;75.47;99315.09;4895183;28;20055;-82
2023/10/31 08:42:36;;;;;;;0.40;0.22;;;;;;;10.40;74.30;99323.06;4900052;28;20048;-83
2023/10/31 08:45:03;;;;;;;1.80;0.20;;;;;;;10.46;75.77;99319.34;4906047;28;20142;-82
2023/10/31 08:47:30;;;;;;;2.25;0.15;;;;;;;10.45;74.96;99329.00;4897669;28;20163;-83
2023/10/31 08:49:57;;;;;;;0.95;0.20;;;;;;;10.48;74.57;99330.66;4904077;28;20074;-83
2023/10/31 08:52:24;;;;;;;0.98;0.35;;;;;;;10.49;73.69;99329.78;4885105;28;20060;-83
2023/10/31 08:54:51;;;;;;;2.03;0.40;;;;;;;10.56;74.37;99331.28;4903954;28;20063;-83
2023/10/31 08:57:17;;;;;;;1.75;0.20;;;;;;;10.55;73.72;99332.19;4913602;28;20055;-82
2023/10/31 08:59:44;;;;;;;0.50;0.30;;;;;;;10.58;73.88;99337.31;4903128;28;20053;-83
2023/10/31 09:02:11;;;;;;;1.52;0.30;;;;;;;10.60;73.01;99328.50;4897627;28;20048;-83
2023/10/31 09:04:38;;;;;;;1.27;0.50;;;;;;;10.65;73.08;99333.59;4889856;28;20425;-85
2023/10/31 09:07:05;;;;;;;3.30;0.40;;;;;;;10.68;72.66;99336.13;4905509;28;20166;-82
2023/10/31 09:09:31;;;;;;;1.48;0.30;;;;;;;10.86;73.13;99339.03;4891099;28;20072;-83
2023/10/31 09:11:58;;;;;;;1.63;0.40;;;;;;;10.89;73.05;99346.78;4903955;28;20094;-83
2023/10/31 09:14:25;;;;;;;2.70;0.38;;;;;;;10.93;72.55;99344.03;4895712;28;20057;-82
2023/10/31 09:16:52;;;;;;;1.27;0.30;;;;;;;11.02;71.86;99345.50;4903312;28;20052;-83
2023/10/31 09:19:19;;;;;;;0.85;0.40;;;;;;;11.23;71.56;99343.03;4904371;28;20071;-83
2023/10/31 09:21:46;;;;;;;1.58;0.40;;;;;;;11.28;72.17;99351.59;4897381;28;20127;-83
2023/10/31 09:24:13;;;;;;;0.43;0.25;;;;;;;11.33;71.75;99341.78;4916620;28;20059;-82
2023/10/31 09:26:45;;;;;;;2.80;0.30;;;;;;;11.31;71.47;99346.22;4911391;28;20048;-85
2023/10/31 09:29:12;;;;;;;1.50;0.50;;;;;;;11.42;71.56;99364.25;4903717;28;20419;-83
2023/10/31 09:31:53;;;;;;;1.85;0.40;;;;;;;11.43;71.17;99361.56;4904067;28;20415;-83
2023/10/31 09:34:20;;;;;;;0.82;0.50;;;;;;;11.43;71.35;99361.56;4904464;28;20052;-84
2023/10/31 09:36:48;;;;;;;2.28;0.17;;;;;;;11.39;70.71;99359.94;4912382;28;20064;-84
2023/10/31 09:39:15;;;;;;;2.22;0.43;;;;;;;11.47;71.48;99368.41;4900276;28;20056;-83
2023/10/31 09:41:41;;;;;;;1.10;0.13;;;;;;;11.56;71.15;99361.13;4900141;28;20132;-82
2023/10/31 09:44:08;;;;;;;2.08;0.10;;;;;;;11.53;70.65;99367.34;4919977;28;20048;-83
2023/10/31 09:46:36;;;;;;;2.38;0.47;;;;;;;11.39;70.19;99362.56;4909084;28;20055;-83
2023/10/31 09:49:02;;;;;;;4.05;0.93;;;;;;;11.39;70.34;99364.34;4905797;28;20052;-84
2023/10/31 09:51:29;;;;;;;1.35;0.47;;;;;;;11.41;70.37;99373.91;4895812;28;20151;-84
2023/10/31 09:53:57;;;;;;;3.22;0.55;;;;;;;11.38;70.33;99368.72;4923603;28;20052;-84
2023/10/31 09:56:24;;;;;;;1.40;0.47;;;;;;;11.45;70.90;99377.25;4880679;28;20055;-83
2023/10/31 09:58:51;;;;;;;2.60;0.73;;;;;;;11.53;69.87;99371.72;4922310;28;20044;-83
2023/10/31 10:01:18;;;;;;;1.10;0.30;;;;;;;11.59;69.78;99361.00;4910246;28;20048;-83
2023/10/31 10:03:45;;;;;;;3.42;0.43;;;;;;;11.75;70.12;99359.53;4899858;28;20056;-83
2023/10/31 10:06:12;;;;;;;0.75;0.32;;;;;;;11.77;68.88;99365.56;4899216;28;20044;-83
2023/10/31 10:08:39;;;;;;;1.67;0.52;;;;;;;11.89;70.04;99366.91;4916041;28;20048;-83
2023/10/31 10:11:06;;;;;;;1.95;0.50;;;;;;;11.94;69.72;99361.50;4908253;28;20568;-83
2023/10/31 10:13:33;;;;;;;1.27;0.15;;;;;;;11.81;69.42;99374.22;4917022;28;20052;-84
2023/10/31 10:16:00;;;;;;;1.77;0.40;;;;;;;11.76;68.50;99374.38;4905987;28;20082;-83
2023/10/31 10:18:28;;;;;;;0.50;0.30;;;;;;;11.69;68.81;99367.63;4898851;28;20060;-85
2023/10/31 10:21:00;;;;;;;0.60;0.20;;;;;;;11.62;68.81;99385.38;4906133;28;20056;-84
2023/10/31 10:23:27;;;;;;;1.17;0.30;;;;;;;11.64;69.25;99374.81;4886110;28;20074;-83
2023/10/31 10:25:56;;;;;;;1.58;0.43;;;;;;;11.61;68.97;99375.78;4892567;28;20080;-83
2023/10/31 10:28:26;;;;;;;0.88;0.30;;;;;;;11.68;69.56;99371.16;4898171;28;20108;-84
2023/10/31 10:30:54;;;;;;;1.40;0.40;;;;;;;11.67;69.39;99372.06;4902106;28;20052;-84
2023/10/31 10:33:21;;;;;;;1.05;0.40;;;;;;;11.74;70.09;99370.94;4902745;28;20048;-82
2023/10/31 10:35:48;;;;;;;1.10;0.25;;;;;;;11.84;68.89;99374.94;4900811;28;20079;-83
2023/10/31 10:38:18;;;;;;;1.25;0.30;;;;;;;11.77;69.10;99375.22;4899628;28;20055;-84
2023/10/31 10:40:47;;;;;;;3.25;0.55;;;;;;;11.84;69.17;99377.56;4899805;28;20052;-82
2023/10/31 10:43:20;;;;;;;1.55;0.55;;;;;;;11.84;69.22;99379.34;4901181;28;20050;-83
2023/10/31 10:45:58;;;;;;;2.45;0.20;;;;;;;11.79;68.74;99379.53;4907874;28;20139;-84
2023/10/31 10:48:27;;;;;;;1.73;0.20;;;;;;;11.79;69.38;99379.53;4887127;28;20084;-83
2023/10/31 10:50:59;;;;;;;0.90;0.40;;;;;;;11.84;68.71;99382.81;4904788;28;20056;-83
2023/10/31 10:53:30;;;;;;;1.88;0.25;;;;;;;11.79;68.86;99371.63;4900510;28;20052;-82
2023/10/31 10:56:03;;;;;;;3.47;0.55;;;;;;;11.97;69.21;99380.63;4893544;28;20063;-83
2023/10/31 10:58:36;;;;;;;1.23;0.30;;;;;;;11.98;68.58;99373.63;4891580;28;20247;-84
2023/10/31 11:01:04;;;;;;;1.13;0.50;;;;;;;12.11;69.83;99374.00;4920046;28;20058;-82
2023/10/31 11:03:31;;;;;;;0.45;0.30;;;;;;;12.08;68.96;99374.97;4889921;28;20063;-82
2023/10/31 11:05:59;;;;;;;1.88;0.35;;;;;;;12.04;68.71;99362.00;4899966;29;20056;-83
2023/10/31 11:08:27;;;;;;;1.55;0.22;;;;;;;12.11;68.61;99368.75;4909844;28;20514;-83
2023/10/31 11:10:55;;;;;;;0.88;0.28;;;;;;;12.22;68.64;99363.06;4894746;28;20075;-83
2023/10/31 11:13:23;;;;;;;0.32;0.15;;;;;;;12.22;67.97;99365.69;4892554;28;20051;-83
2023/10/31 11:15:52;;;;;;;0.68;0.22;;;;;;;12.32;67.13;99365.25;4899196;28;20059;-83
2023/10/31 11:18:19;;;;;;;2.22;0.57;;;;;;;12.39;67.09;99365.88;4883640;28;20044;-82
2023/10/31 11:20:46;;;;;;;1.17;0.20;;;;;;;12.22;66.76;99377.06;4903928;28;20592;-83
2023/10/31 11:23:13;;;;;;;0.28;0.20;;;;;;;12.20;66.43;99371.00;4896288;28;20124;-83
2023/10/31 11:25:45;;;;;;;1.65;0.30;;;;;;;12.22;66.83;99369.16;4906649;28;20048;-82
2023/10/31 11:28:17;;;;;;;0.65;0.25;;;;;;;12.26;67.59;99364.66;4892762;28;20052;-85
2023/10/31 11:30:49;;;;;;;2.13;0.28;;;;;;;12.14;66.70;99385.25;4897748;28;20071;-83
2023/10/31 11:33:19;;;;;;;2.55;0.50;;;;;;;12.06;65.91;99374.16;4892410;28;20066;-82
2023/10/31 11:36:06;;;;;;;2.08;0.32;;;;;;;12.13;66.48;99377.44;4907729;28;20047;-83
2023/10/31 11:38:37;;;;;;;1.50;0.40;;;;;;;12.25;67.36;99368.19;4891138;28;20052;-83
2023/10/31 11:41:05;;;;;;;2.13;0.40;;;;;;;12.31;66.46;99366.19;4911332;28;20123;-82